Time;durP1;ratioP1;P1;durP2;ratioP2;P2;SDS_P1;SDS_P2;PMS_P1;PMS_P2;Temp;Humidity;BMP_temperature;BMP_pressure;BME280_temperature;BME280_humidity;BME280_pressure;Samples;Min_cycle;Max_cycle;Signal;HPM_P1;HPM_P2
2022/10/19 00:01:13;;;;;;;13.83;8.08;;;;;;;6.63;76.28;99435.03;1764696;81;20973;-67
2022/10/19 00:03:40;;;;;;;13.93;7.40;;;;;;;6.65;76.29;99422.08;1764921;81;20953;-67
2022/10/19 00:06:24;;;;;;;10.18;7.15;;;;;;;6.65;76.33;99421.63;1764679;81;20962;-68
2022/10/19 00:08:53;;;;;;;11.63;7.30;;;;;;;6.65;76.40;99418.20;1763159;81;21578;-67
2022/10/19 00:11:20;;;;;;;10.98;7.45;;;;;;;6.64;76.50;99417.80;1764768;81;21769;-67
2022/10/19 00:13:47;;;;;;;10.75;7.25;;;;;;;6.63;76.50;99422.11;1764825;80;21036;-67
2022/10/19 00:16:16;;;;;;;11.88;6.45;;;;;;;6.64;76.47;99417.80;1764903;80;20981;-67
2022/10/19 00:18:44;;;;;;;8.70;6.87;;;;;;;6.63;76.51;99410.92;1764876;81;20992;-67
2022/10/19 00:24:41;;;;;;;10.93;7.53;;;;;;;6.64;76.57;99403.13;1764776;80;20929;-67
2022/10/19 00:27:09;;;;;;;11.75;7.42;;;;;;;6.66;76.68;99399.22;1764762;81;20989;-67
2022/10/19 00:29:36;;;;;;;9.90;6.83;;;;;;;6.67;76.78;99396.59;1764761;81;21476;-67
2022/10/19 00:32:04;;;;;;;16.32;8.15;;;;;;;6.72;76.78;99399.06;1764811;81;21043;-67
2022/10/19 00:34:32;;;;;;;11.73;7.33;;;;;;;6.76;76.71;99387.31;1764878;81;21024;-67
2022/10/19 00:36:58;;;;;;;14.38;7.50;;;;;;;6.80;76.59;99388.91;1764752;81;21142;-67
2022/10/19 00:39:25;;;;;;;9.23;6.83;;;;;;;6.82;76.40;99388.42;1743400;81;20996;-67
2022/10/19 00:41:51;;;;;;;10.30;6.60;;;;;;;6.83;76.25;99379.77;1764740;81;21011;-67
2022/10/19 00:44:30;;;;;;;10.38;7.22;;;;;;;6.84;76.23;99381.47;1764853;81;21000;-67
2022/10/19 00:47:00;;;;;;;13.58;6.83;;;;;;;6.84;76.13;99378.04;1764857;81;20997;-67
2022/10/19 00:49:33;;;;;;;9.28;6.25;;;;;;;6.82;76.06;99375.49;1764783;81;21137;-67
2022/10/19 00:52:06;;;;;;;8.15;6.30;;;;;;;6.83;76.02;99373.76;1764828;81;20984;-67
2022/10/19 00:54:33;;;;;;;10.65;7.03;;;;;;;6.81;75.99;99367.33;1764891;80;21036;-67
2022/10/19 00:57:00;;;;;;;9.93;6.35;;;;;;;6.80;76.07;99368.66;1765051;81;21441;-67
2022/10/19 00:59:27;;;;;;;11.45;6.60;;;;;;;6.78;76.14;99360.14;1743249;81;20945;-67
2022/10/19 01:01:53;;;;;;;10.23;6.87;;;;;;;6.76;76.09;99356.30;1764824;81;21239;-67
2022/10/19 01:04:21;;;;;;;9.53;6.25;;;;;;;6.76;76.14;99348.55;1764739;81;20945;-67
2022/10/19 01:06:47;;;;;;;11.48;6.33;;;;;;;6.77;76.23;99344.22;1743469;81;20961;-67
2022/10/19 01:09:14;;;;;;;9.23;6.35;;;;;;;6.76;76.47;99338.65;1764852;81;21047;-67
2022/10/19 01:12:05;;;;;;;8.63;5.60;;;;;;;6.75;76.51;99337.80;1764735;81;20952;-67
2022/10/19 01:15:09;;;;;;;9.98;6.12;;;;;;;6.76;76.59;99333.48;1768788;80;21476;-67
2022/10/19 01:17:59;;;;;;;7.33;5.53;;;;;;;6.78;76.67;99331.70;1695984;84;21014;-67
2022/10/19 01:20:58;;;;;;;9.38;5.20;;;;;;;6.77;76.50;99327.42;1709594;82;21101;-67
2022/10/19 01:23:55;;;;;;;12.20;5.95;;;;;;;6.77;76.50;99329.56;1751614;81;21052;-68
2022/10/19 01:26:50;;;;;;;9.30;6.08;;;;;;;6.77;76.42;99320.95;1759359;81;21030;-67
2022/10/19 01:29:51;;;;;;;8.83;6.05;;;;;;;6.78;76.49;99321.36;1762609;81;21812;-67
2022/10/19 01:32:29;;;;;;;8.13;5.10;;;;;;;6.78;76.68;99325.24;1762552;81;20925;-67
2022/10/19 01:35:14;;;;;;;9.08;6.37;;;;;;;6.76;76.72;99308.48;1762574;81;21055;-67
2022/10/19 01:37:48;;;;;;;11.88;6.78;;;;;;;6.76;76.74;99308.92;1740516;81;20965;-67
2022/10/19 01:40:27;;;;;;;11.75;6.72;;;;;;;6.75;76.76;99314.98;1759902;81;21000;-67
2022/10/19 01:43:31;;;;;;;11.73;6.62;;;;;;;6.73;76.74;99309.86;1762659;81;21572;-67
2022/10/19 01:46:23;;;;;;;14.80;7.08;;;;;;;6.73;76.81;99316.77;1762487;81;20981;-68
2022/10/19 01:49:16;;;;;;;9.63;5.97;;;;;;;6.73;77.20;99311.59;1762665;81;20957;-68
2022/10/19 01:51:47;;;;;;;9.58;5.75;;;;;;;6.72;77.48;99311.19;1762711;81;20983;-68
2022/10/19 01:54:14;;;;;;;9.60;5.60;;;;;;;6.73;77.65;99311.14;1762699;81;20984;-68
2022/10/19 01:56:44;;;;;;;8.60;5.87;;;;;;;6.75;77.72;99307.23;1717193;81;21250;-68
2022/10/19 01:59:11;;;;;;;11.10;5.42;;;;;;;6.77;77.84;99299.84;1762501;81;21028;-68
2022/10/19 02:01:42;;;;;;;9.28;5.65;;;;;;;6.79;77.84;99298.50;1762539;81;20956;-68
2022/10/19 02:04:10;;;;;;;8.30;5.08;;;;;;;6.83;77.82;99289.74;1762559;81;20980;-68
2022/10/19 02:06:36;;;;;;;8.20;5.80;;;;;;;6.85;77.82;99286.22;1762504;81;20929;-68
2022/10/19 02:09:03;;;;;;;8.08;5.60;;;;;;;6.88;77.73;99282.26;1762530;81;21761;-68
2022/10/19 02:11:30;;;;;;;7.42;4.70;;;;;;;6.89;77.64;99274.91;1762575;81;21396;-68
2022/10/19 02:14:07;;;;;;;13.00;4.78;;;;;;;6.90;77.62;99279.19;1762538;81;20996;-68
2022/10/19 02:16:39;;;;;;;7.92;5.05;;;;;;;6.93;77.60;99272.23;1762623;81;21102;-68
2022/10/19 02:19:07;;;;;;;8.70;4.28;;;;;;;6.93;77.51;99276.96;1762489;81;21012;-68
2022/10/19 02:21:35;;;;;;;6.33;4.37;;;;;;;6.93;77.53;99279.55;1741776;81;20997;-68
2022/10/19 02:24:02;;;;;;;11.50;5.33;;;;;;;6.93;77.61;99277.41;1762447;81;21016;-68
2022/10/19 02:26:29;;;;;;;11.90;5.22;;;;;;;6.93;77.77;99270.94;1764699;80;20956;-68
2022/10/19 02:28:56;;;;;;;7.08;4.92;;;;;;;6.93;77.98;99268.36;1764794;81;20988;-68
2022/10/19 02:31:22;;;;;;;12.63;5.75;;;;;;;6.94;78.08;99270.05;1764961;81;21000;-68
2022/10/19 02:33:49;;;;;;;12.10;5.35;;;;;;;6.95;78.15;99261.41;1764851;81;21440;-68
2022/10/19 02:36:17;;;;;;;8.43;5.03;;;;;;;6.97;78.19;99258.33;1765013;80;21453;-68
2022/10/19 02:38:43;;;;;;;8.73;5.35;;;;;;;6.97;78.22;99262.21;1765042;80;21492;-68
2022/10/19 02:41:21;;;;;;;7.15;5.50;;;;;;;6.97;78.23;99251.42;1764944;81;20953;-68
2022/10/19 02:43:50;;;;;;;7.53;5.35;;;;;;;6.97;78.25;99254.01;1765093;81;21158;-68
2022/10/19 02:46:43;;;;;;;9.10;5.65;;;;;;;6.96;78.29;99249.73;1764937;80;21099;-68
2022/10/19 02:49:11;;;;;;;7.80;5.08;;;;;;;6.95;78.31;99253.20;1764261;80;20953;-68
2022/10/19 02:51:42;;;;;;;10.95;4.72;;;;;;;6.94;78.43;99248.08;1764933;81;20984;-68
2022/10/19 02:54:08;;;;;;;6.92;4.22;;;;;;;6.93;78.51;99251.11;1763076;81;21083;-68
2022/10/19 02:56:35;;;;;;;8.08;4.95;;;;;;;6.95;78.56;99248.48;1764969;81;21012;-68
2022/10/19 02:59:03;;;;;;;8.35;4.75;;;;;;;6.95;78.68;99250.62;1764826;80;21243;-68
2022/10/19 03:01:31;;;;;;;7.50;4.78;;;;;;;6.98;78.77;99250.98;1764885;80;21382;-68
2022/10/19 03:03:58;;;;;;;10.10;5.28;;;;;;;7.01;78.82;99249.12;1764968;80;21417;-68
2022/10/19 03:06:25;;;;;;;7.28;5.25;;;;;;;7.03;78.79;99246.48;1764837;80;21056;-68
2022/10/19 03:08:53;;;;;;;10.23;5.67;;;;;;;7.05;78.77;99242.12;1764931;80;21580;-68
2022/10/19 03:11:21;;;;;;;11.28;5.17;;;;;;;7.06;78.72;99238.20;1765024;81;21212;-68
2022/10/19 03:13:49;;;;;;;5.95;4.62;;;;;;;7.07;78.74;99239.05;1764744;81;20945;-68
2022/10/19 03:16:15;;;;;;;7.70;4.92;;;;;;;7.07;78.75;99237.30;1764919;81;20992;-68
2022/10/19 03:18:42;;;;;;;12.05;5.40;;;;;;;7.07;78.78;99227.41;1764817;81;21035;-68
2022/10/19 03:21:11;;;;;;;15.15;4.87;;;;;;;7.09;78.89;99234.67;1764768;80;21127;-68
2022/10/19 03:23:39;;;;;;;9.83;4.65;;;;;;;7.09;78.93;99232.08;1765362;80;21176;-68
2022/10/19 03:26:06;;;;;;;7.78;4.55;;;;;;;7.12;78.93;99228.12;1764723;81;21008;-68
2022/10/19 03:28:33;;;;;;;6.90;4.97;;;;;;;7.15;79.03;99226.73;1764891;81;21000;-68
2022/10/19 03:31:01;;;;;;;8.15;4.95;;;;;;;7.17;79.15;99222.36;1764911;80;21067;-68
2022/10/19 03:33:29;;;;;;;8.25;4.87;;;;;;;7.19;79.23;99226.56;1765085;81;21424;-68
2022/10/19 03:36:21;;;;;;;8.18;4.60;;;;;;;7.23;79.29;99226.02;1765089;81;21389;-68
2022/10/19 03:38:57;;;;;;;11.60;5.37;;;;;;;7.28;79.23;99222.00;1764985;81;21440;-68
2022/10/19 03:41:27;;;;;;;7.65;4.42;;;;;;;7.30;79.20;99229.27;1764916;81;20992;-68
2022/10/19 03:43:53;;;;;;;10.93;5.58;;;;;;;7.32;79.18;99219.27;1764756;80;21036;-68
2022/10/19 03:46:20;;;;;;;8.95;5.42;;;;;;;7.32;79.22;99205.05;1764879;81;21032;-69
2022/10/19 03:48:47;;;;;;;8.55;4.40;;;;;;;7.34;79.23;99203.70;1764896;80;21144;-68
2022/10/19 03:51:18;;;;;;;6.67;4.87;;;;;;;7.34;79.23;99202.41;1764819;81;20976;-68
2022/10/19 03:53:46;;;;;;;7.03;4.42;;;;;;;7.36;79.19;99200.63;1764887;81;21031;-68
2022/10/19 03:56:16;;;;;;;9.80;5.20;;;;;;;7.37;79.23;99197.98;1764796;81;21005;-69
2022/10/19 03:58:45;;;;;;;13.53;4.95;;;;;;;7.38;79.36;99196.25;1764632;81;21024;-68
2022/10/19 04:01:21;;;;;;;9.03;5.22;;;;;;;7.42;79.48;99204.28;1764997;80;21420;-68
2022/10/19 04:03:57;;;;;;;8.58;5.55;;;;;;;7.43;79.46;99198.22;1764861;81;20980;-68
2022/10/19 04:06:28;;;;;;;9.30;5.40;;;;;;;7.43;79.47;99204.23;1759407;81;21456;-68
2022/10/19 04:08:57;;;;;;;11.12;5.65;;;;;;;7.44;79.53;99190.84;1764969;81;20965;-69
2022/10/19 04:11:27;;;;;;;8.10;5.55;;;;;;;7.43;79.64;99190.45;1764877;81;21509;-68
2022/10/19 04:13:56;;;;;;;13.25;5.22;;;;;;;7.41;79.73;99191.80;1764767;81;20873;-68
2022/10/19 04:16:23;;;;;;;13.00;5.53;;;;;;;7.39;79.84;99185.85;1764798;81;20996;-68
2022/10/19 04:18:50;;;;;;;10.40;5.65;;;;;;;7.38;79.91;99177.69;1764897;80;20961;-68
2022/10/19 04:21:24;;;;;;;9.53;4.67;;;;;;;7.38;80.04;99171.67;1764780;80;21436;-69
2022/10/19 04:23:59;;;;;;;13.60;5.10;;;;;;;7.38;80.24;99169.93;1764844;80;20933;-68
2022/10/19 04:26:26;;;;;;;8.60;5.42;;;;;;;7.40;80.50;99165.97;1762331;81;21154;-68
2022/10/19 04:28:53;;;;;;;8.00;5.65;;;;;;;7.42;80.70;99165.02;1764677;81;21001;-68
2022/10/19 04:31:20;;;;;;;29.75;6.83;;;;;;;7.45;80.78;99161.48;1743409;81;20952;-68
2022/10/19 04:33:46;;;;;;;13.32;7.05;;;;;;;7.48;80.85;99158.36;1764790;81;20988;-69
2022/10/19 04:36:14;;;;;;;14.93;6.95;;;;;;;7.51;80.96;99151.79;1764729;80;21134;-68
2022/10/19 04:38:41;;;;;;;11.95;7.10;;;;;;;7.56;80.98;99159.41;1764779;81;21748;-68
2022/10/19 04:41:11;;;;;;;21.42;8.93;;;;;;;7.61;81.01;99147.13;1764696;81;20980;-68
2022/10/19 04:43:37;;;;;;;17.23;7.53;;;;;;;7.67;81.04;99142.20;1764767;81;20945;-68
2022/10/19 04:46:06;;;;;;;10.23;6.25;;;;;;;7.72;81.14;99141.59;1764809;81;21052;-68
2022/10/19 04:48:35;;;;;;;11.08;6.75;;;;;;;7.80;81.24;99139.56;1764778;80;20997;-69
2022/10/19 04:51:02;;;;;;;14.60;7.72;;;;;;;7.89;81.26;99131.03;1764713;81;21141;-69
2022/10/19 04:53:32;;;;;;;10.25;7.00;;;;;;;8.01;81.26;99134.91;1764851;81;21410;-69
2022/10/19 04:55:58;;;;;;;13.50;7.58;;;;;;;8.13;81.12;99126.71;1764924;80;20932;-69
2022/10/19 04:58:26;;;;;;;15.03;8.08;;;;;;;8.27;80.99;99132.21;1764971;81;21516;-69
2022/10/19 05:00:52;;;;;;;12.55;7.47;;;;;;;8.41;80.64;99138.19;1764953;80;21036;-69
2022/10/19 05:03:19;;;;;;;19.87;7.80;;;;;;;8.52;80.35;99146.87;1764989;81;21203;-69
2022/10/19 05:05:47;;;;;;;16.27;8.15;;;;;;;8.61;80.16;99159.02;1764865;81;20941;-69
2022/10/19 05:08:14;;;;;;;21.05;10.80;;;;;;;8.69;79.97;99172.14;1764697;81;21008;-69
2022/10/19 05:10:42;;;;;;;18.35;10.13;;;;;;;8.71;79.91;99172.48;1764927;81;20964;-69
2022/10/19 05:13:10;;;;;;;21.85;9.93;;;;;;;8.74;79.89;99187.92;1785878;80;20980;-69
2022/10/19 05:15:41;;;;;;;14.78;7.83;;;;;;;8.78;79.98;99182.17;1747323;82;20981;-69
2022/10/19 05:18:11;;;;;;;12.35;7.20;;;;;;;8.84;80.15;99185.36;1718259;83;21476;-67
2022/10/19 05:20:39;;;;;;;14.55;7.85;;;;;;;8.91;80.35;99188.11;1764862;81;21477;-68
2022/10/19 05:23:08;;;;;;;9.03;6.47;;;;;;;8.96;80.39;99181.00;1772882;80;21418;-68
2022/10/19 05:25:35;;;;;;;12.68;7.00;;;;;;;9.01;80.19;99188.58;1780389;79;21074;-68
2022/10/19 05:28:04;;;;;;;13.62;7.47;;;;;;;9.04;80.22;99192.36;1792514;80;21133;-68
2022/10/19 05:30:38;;;;;;;18.45;7.08;;;;;;;9.10;80.28;99193.87;1789571;79;20932;-68
2022/10/19 05:33:21;;;;;;;13.03;7.80;;;;;;;9.14;80.29;99191.09;1810298;79;21429;-68
2022/10/19 05:35:58;;;;;;;12.47;7.95;;;;;;;9.18;80.51;99191.38;1801632;79;21685;-68
2022/10/19 05:38:34;;;;;;;13.65;8.08;;;;;;;9.23;80.75;99197.66;1810914;79;21436;-68
2022/10/19 05:41:06;;;;;;;13.60;8.73;;;;;;;9.28;81.12;99193.13;1811166;79;21798;-68
2022/10/19 05:43:41;;;;;;;11.83;8.08;;;;;;;9.31;81.53;99195.16;1810898;79;20967;-68
2022/10/19 05:46:20;;;;;;;13.38;8.18;;;;;;;9.36;81.86;99200.16;1807964;79;20982;-68
2022/10/19 05:48:51;;;;;;;18.20;9.58;;;;;;;9.41;82.41;99202.09;1781199;79;21042;-68
2022/10/19 05:51:26;;;;;;;17.05;9.85;;;;;;;9.47;83.07;99203.15;1777786;80;21583;-69
2022/10/19 05:54:01;;;;;;;16.55;9.88;;;;;;;9.56;83.67;99205.83;1782354;79;21232;-68
2022/10/19 05:56:37;;;;;;;21.75;12.37;;;;;;;9.65;84.55;99210.17;1782628;79;21534;-68
2022/10/19 05:59:17;;;;;;;21.95;13.85;;;;;;;9.75;85.35;99202.02;1778872;80;20950;-68
2022/10/19 06:01:50;;;;;;;31.00;14.58;;;;;;;9.85;86.12;99207.19;1759781;79;20968;-68
2022/10/19 06:04:29;;;;;;;22.93;13.72;;;;;;;9.95;87.49;99208.05;1796805;79;21098;-69
2022/10/19 06:07:05;;;;;;;31.40;15.90;;;;;;;10.05;88.72;99203.28;1803919;79;21613;-69
2022/10/19 06:09:35;;;;;;;28.17;16.90;;;;;;;10.19;89.86;99210.53;1801612;78;20996;-68
2022/10/19 06:12:03;;;;;;;24.55;16.30;;;;;;;10.31;90.44;99202.17;1800808;79;21157;-69
2022/10/19 06:14:30;;;;;;;22.93;16.02;;;;;;;10.44;91.58;99208.95;1796555;79;20948;-68
2022/10/19 06:16:59;;;;;;;21.23;14.05;;;;;;;10.56;92.99;99205.37;1779054;80;21416;-72
2022/10/19 06:19:28;;;;;;;21.05;14.28;;;;;;;10.68;93.28;99207.84;1781983;79;21088;-72
2022/10/19 06:21:56;;;;;;;22.42;13.98;;;;;;;10.78;93.55;99204.38;1811044;78;20984;-74
2022/10/19 06:24:24;;;;;;;21.40;14.23;;;;;;;10.86;93.81;99205.69;1803165;79;20992;-72
2022/10/19 06:26:52;;;;;;;21.77;15.05;;;;;;;10.92;93.81;99202.81;1778928;79;20944;-73
2022/10/19 06:29:20;;;;;;;22.50;16.52;;;;;;;10.99;94.12;99205.49;1779078;80;20980;-72
2022/10/19 06:31:59;;;;;;;30.15;17.12;;;;;;;11.05;94.52;99206.52;1779125;80;21232;-73
2022/10/19 06:34:33;;;;;;;28.38;16.48;;;;;;;11.11;94.49;99209.74;1788819;79;20987;-73
2022/10/19 06:37:01;;;;;;;23.27;16.02;;;;;;;11.16;94.95;99206.47;1783263;79;21045;-72
2022/10/19 06:39:30;;;;;;;24.00;16.35;;;;;;;11.21;95.21;99211.82;1779033;80;20958;-74
2022/10/19 06:41:59;;;;;;;28.67;17.67;;;;;;;11.24;95.84;99207.77;1779103;79;20947;-73
2022/10/19 06:44:28;;;;;;;20.60;15.75;;;;;;;11.29;96.01;99216.67;1779443;80;21419;-73
2022/10/19 06:47:04;;;;;;;20.72;15.20;;;;;;;11.33;96.32;99226.02;1778977;80;21026;-72
2022/10/19 06:49:43;;;;;;;19.25;13.25;;;;;;;11.37;96.66;99224.51;1779450;80;21521;-71
2022/10/19 06:52:16;;;;;;;20.92;13.08;;;;;;;11.42;97.11;99228.16;1778480;80;21513;-72
2022/10/19 06:54:46;;;;;;;18.37;13.70;;;;;;;11.49;97.55;99236.53;1805298;77;20990;-72
2022/10/19 06:57:24;;;;;;;23.87;14.70;;;;;;;11.51;98.40;99251.63;1845495;77;21137;-75
2022/10/19 07:00:05;;;;;;;19.37;14.93;;;;;;;11.55;98.33;99244.05;1845484;77;21081;-73
2022/10/19 07:02:32;;;;;;;19.48;14.78;;;;;;;11.59;98.77;99245.60;1794470;78;21075;-72
2022/10/19 07:05:01;;;;;;;19.07;12.10;;;;;;;11.63;99.04;99241.44;1779778;79;20989;-71
2022/10/19 07:07:29;;;;;;;17.48;14.00;;;;;;;11.68;99.66;99256.39;1763532;80;21043;-72
2022/10/19 07:09:57;;;;;;;26.15;16.55;;;;;;;11.72;99.67;99254.03;1794324;79;21255;-74
2022/10/19 07:12:25;;;;;;;24.45;15.23;;;;;;;11.74;100.00;99256.09;1782770;79;21051;-72
2022/10/19 07:14:55;;;;;;;20.17;13.35;;;;;;;11.78;100.00;99258.59;1776889;80;21075;-74
2022/10/19 07:17:26;;;;;;;18.27;12.03;;;;;;;11.83;100.00;99258.72;1781557;79;21090;-72
2022/10/19 07:19:59;;;;;;;16.00;11.25;;;;;;;11.88;100.00;99253.29;1806495;79;21055;-74
2022/10/19 07:22:29;;;;;;;15.88;11.35;;;;;;;11.89;100.00;99253.22;1808271;79;21214;-72
2022/10/19 07:24:57;;;;;;;16.42;10.65;;;;;;;11.88;100.00;99254.13;1809403;79;21054;-73
2022/10/19 07:27:31;;;;;;;13.80;9.78;;;;;;;11.87;100.00;99243.78;1798891;78;21020;-74
2022/10/19 07:30:06;;;;;;;12.98;10.08;;;;;;;11.86;100.00;99248.16;1794339;80;21023;-72
2022/10/19 07:32:41;;;;;;;15.20;11.38;;;;;;;11.86;100.00;99250.76;1788269;80;21038;-72
2022/10/19 07:35:18;;;;;;;11.38;9.95;;;;;;;11.86;100.00;99256.43;1763895;81;21152;-71
2022/10/19 07:37:46;;;;;;;14.58;11.53;;;;;;;11.88;100.00;99265.02;1777559;80;20917;-72
2022/10/19 07:40:14;;;;;;;18.27;12.70;;;;;;;11.87;100.00;99265.94;1796243;80;20988;-72
2022/10/19 07:42:42;;;;;;;15.08;11.35;;;;;;;11.87;100.00;99264.17;1796185;80;20933;-72
2022/10/19 07:45:10;;;;;;;14.60;9.53;;;;;;;11.87;100.00;99262.02;1785597;80;21212;-70
2022/10/19 07:47:39;;;;;;;10.60;8.70;;;;;;;11.85;100.00;99254.73;1785486;80;21096;-72
2022/10/19 07:50:09;;;;;;;11.78;8.80;;;;;;;11.80;100.00;99250.20;1786945;80;21017;-73
2022/10/19 07:52:36;;;;;;;18.30;12.78;;;;;;;11.77;100.00;99260.81;1768498;80;21094;-71
2022/10/19 07:55:04;;;;;;;21.15;14.10;;;;;;;11.75;100.00;99267.37;1717595;83;21024;-72
2022/10/19 07:57:32;;;;;;;20.35;14.38;;;;;;;11.71;100.00;99268.43;1716325;82;21013;-72
2022/10/19 08:00:01;;;;;;;17.00;13.25;;;;;;;11.68;100.00;99273.33;1717609;83;21070;-71
2022/10/19 08:02:30;;;;;;;14.30;11.12;;;;;;;11.66;100.00;99284.28;1717237;82;21009;-71
2022/10/19 08:05:00;;;;;;;14.05;9.85;;;;;;;11.63;100.00;99270.55;1718049;82;20996;-71
2022/10/19 08:07:36;;;;;;;11.22;9.28;;;;;;;11.59;100.00;99274.25;1764656;80;20953;-71
2022/10/19 08:10:07;;;;;;;12.05;9.33;;;;;;;11.54;100.00;99276.23;1764914;81;21044;-70
2022/10/19 08:12:37;;;;;;;11.83;9.98;;;;;;;11.50;100.00;99269.02;1717958;83;21477;-72
2022/10/19 08:15:10;;;;;;;13.05;8.63;;;;;;;11.49;100.00;99267.33;1777879;79;21000;-73
2022/10/19 08:17:40;;;;;;;12.20;9.30;;;;;;;11.51;100.00;99262.89;1768162;80;20959;-71
2022/10/19 08:20:10;;;;;;;12.03;8.35;;;;;;;11.51;100.00;99251.63;1764668;81;20956;-73
2022/10/19 08:22:38;;;;;;;11.20;8.70;;;;;;;11.52;100.00;99255.92;1764849;81;21000;-73
2022/10/19 08:25:07;;;;;;;11.45;9.15;;;;;;;11.52;100.00;99252.86;1781869;80;21449;-73
2022/10/19 08:27:38;;;;;;;8.68;7.65;;;;;;;11.55;100.00;99253.17;1792458;80;21060;-70
2022/10/19 08:30:09;;;;;;;7.85;6.90;;;;;;;11.57;100.00;99260.00;1769892;80;21040;-71
2022/10/19 08:32:36;;;;;;;10.80;8.33;;;;;;;11.59;100.00;99253.41;1727410;80;21486;-72
2022/10/19 08:35:06;;;;;;;8.25;7.15;;;;;;;11.58;100.00;99264.29;1745945;82;21072;-71
2022/10/19 08:37:38;;;;;;;10.55;8.08;;;;;;;11.61;100.00;99247.64;1745976;82;21331;-72
2022/10/19 08:40:22;;;;;;;10.60;8.43;;;;;;;11.64;100.00;99246.19;1745983;82;20966;-71
2022/10/19 08:43:12;;;;;;;10.88;8.00;;;;;;;11.66;100.00;99246.97;1751167;80;20996;-74
2022/10/19 08:45:43;;;;;;;7.42;6.72;;;;;;;11.68;100.00;99252.95;1758553;81;20953;-72
2022/10/19 08:48:32;;;;;;;9.25;7.28;;;;;;;11.72;100.00;99246.67;1758734;81;20935;-72
2022/10/19 08:50:59;;;;;;;10.00;7.25;;;;;;;11.77;100.00;99244.72;1758246;81;22180;-72
2022/10/19 08:53:44;;;;;;;8.45;7.65;;;;;;;11.85;100.00;99249.06;1768017;80;21028;-72
2022/10/19 08:56:35;;;;;;;27.67;18.50;;;;;;;11.92;100.00;99262.19;1773976;80;21036;-72
2022/10/19 08:59:35;;;;;;;22.10;16.25;;;;;;;11.99;100.00;99264.03;1770800;80;21114;-73
2022/10/19 09:02:17;;;;;;;20.55;17.07;;;;;;;12.05;100.00;99261.09;1766842;80;20965;-73
2022/10/19 09:04:51;;;;;;;17.77;14.83;;;;;;;12.06;100.00;99267.53;1764698;80;21492;-72
2022/10/19 09:07:36;;;;;;;10.72;9.58;;;;;;;12.08;100.00;99267.47;1765409;80;21110;-71
2022/10/19 09:10:28;;;;;;;9.38;7.85;;;;;;;12.10;100.00;99272.60;1762796;81;21111;-72
2022/10/19 09:13:16;;;;;;;;;;;;;;;12.10;100.00;99268.23;1794455;80;21028;-71
2022/10/19 09:15:49;;;;;;;8.45;7.42;;;;;;;12.13;100.00;99275.91;1796074;79;20166;-73
2022/10/19 09:18:27;;;;;;;7.55;5.42;;;;;;;12.12;100.00;99272.91;1796153;79;20926;-72
2022/10/19 09:21:05;;;;;;;4.97;4.33;;;;;;;12.13;100.00;99271.15;1795979;80;21424;-71
2022/10/19 09:23:55;;;;;;;8.23;5.95;;;;;;;12.14;100.00;99268.92;1796138;80;21012;-72
2022/10/19 09:26:30;;;;;;;5.97;4.50;;;;;;;12.18;100.00;99264.78;1796133;80;21036;-72
2022/10/19 09:29:15;;;;;;;5.62;4.22;;;;;;;12.26;100.00;99269.13;1786971;80;20977;-71
2022/10/19 09:31:42;;;;;;;3.55;2.83;;;;;;;12.29;100.00;99268.98;1792054;80;21329;-72
2022/10/19 09:34:39;;;;;;;8.73;3.52;;;;;;;12.36;100.00;99269.52;1773801;80;21024;-72
2022/10/19 09:37:07;;;;;;;3.02;2.65;;;;;;;12.42;100.00;99275.69;1753726;80;32712;-72
2022/10/19 09:39:34;;;;;;;2.52;2.30;;;;;;;12.62;100.00;99275.95;1767194;80;21494;-72
2022/10/19 09:42:24;;;;;;;2.80;1.90;;;;;;;12.78;100.00;99274.70;1744181;80;21032;-72
2022/10/19 09:44:51;;;;;;;2.40;1.62;;;;;;;12.88;99.43;99265.44;1796359;80;21097;-71
2022/10/19 09:47:39;;;;;;;3.80;3.20;;;;;;;12.97;97.54;99268.41;1795746;80;21405;-71
2022/10/19 09:50:23;;;;;;;1.60;1.50;;;;;;;13.08;97.20;99263.89;1764833;81;21000;-72
2022/10/19 09:53:04;;;;;;;2.00;1.55;;;;;;;13.19;95.38;99262.85;1764857;81;21139;-71
2022/10/19 09:55:46;;;;;;;2.72;1.75;;;;;;;13.28;94.96;99247.99;1764988;81;21000;-72
2022/10/19 09:58:17;;;;;;;1.98;1.65;;;;;;;13.41;95.10;99252.89;1764997;81;21870;-71
2022/10/19 10:00:55;;;;;;;2.58;1.82;;;;;;;13.50;93.94;99262.00;1764772;80;21499;-71
2022/10/19 10:03:26;;;;;;;2.40;1.15;;;;;;;13.52;94.07;99260.14;1778189;80;21005;-72
2022/10/19 10:05:58;;;;;;;2.35;1.50;;;;;;;13.54;92.16;99251.75;1747988;82;21039;-72
2022/10/19 10:08:29;;;;;;;2.75;1.70;;;;;;;13.53;92.35;99253.14;1774969;80;20976;-71
2022/10/19 10:11:10;;;;;;;1.67;1.57;;;;;;;13.48;90.58;99258.62;1774378;80;21148;-72
2022/10/19 10:13:41;;;;;;;1.25;1.05;;;;;;;13.48;90.58;99258.62;1781224;80;21455;-71
2022/10/19 10:16:12;;;;;;;1.32;1.12;;;;;;;13.45;90.33;99250.95;1776981;80;21024;-72
2022/10/19 10:19:00;;;;;;;3.77;2.00;;;;;;;13.44;90.33;99248.80;1785901;79;20989;-72
2022/10/19 10:21:51;;;;;;;1.67;1.30;;;;;;;13.46;90.83;99246.11;1768242;80;20935;-72
2022/10/19 10:24:27;;;;;;;2.37;1.22;;;;;;;13.53;89.67;99243.53;1767487;80;21138;-72
2022/10/19 10:27:02;;;;;;;0.70;0.70;;;;;;;13.57;88.62;99234.59;1777155;79;21004;-71
2022/10/19 10:29:35;;;;;;;2.98;2.17;;;;;;;13.58;87.02;99226.30;1766541;80;20953;-72
2022/10/19 10:32:12;;;;;;;2.40;1.50;;;;;;;13.55;86.44;99232.53;1745513;80;21474;-71
2022/10/19 10:34:45;;;;;;;2.20;1.37;;;;;;;13.50;86.33;99232.41;1770268;80;20945;-72
2022/10/19 10:37:21;;;;;;;4.03;1.30;;;;;;;13.43;86.80;99219.69;1772233;80;21142;-71
2022/10/19 10:39:53;;;;;;;1.22;1.10;;;;;;;13.41;87.05;99216.78;1775372;80;20941;-72
2022/10/19 10:42:34;;;;;;;2.47;1.80;;;;;;;13.37;85.68;99206.16;1764661;80;22110;-72
2022/10/19 10:45:04;;;;;;;5.97;1.52;;;;;;;13.31;86.70;99202.12;1770435;80;21096;-71
2022/10/19 10:47:40;;;;;;;2.40;1.10;;;;;;;13.31;87.09;99194.28;1750458;80;20937;-71
2022/10/19 10:50:14;;;;;;;3.80;1.80;;;;;;;13.35;86.49;99196.26;1704295;80;21092;-72
2022/10/19 10:52:58;;;;;;;1.85;1.45;;;;;;;13.42;86.90;99195.80;1775491;80;22366;-70
2022/10/19 10:55:32;;;;;;;1.62;1.20;;;;;;;13.54;84.36;99194.73;1748584;79;21575;-72
2022/10/19 10:58:13;;;;;;;3.77;1.62;;;;;;;13.63;83.52;99179.34;1768980;80;20985;-73
2022/10/19 11:00:40;;;;;;;7.12;1.45;;;;;;;13.72;83.41;99183.20;1766541;80;20940;-72
2022/10/19 11:03:14;;;;;;;4.72;1.60;;;;;;;13.89;83.54;99184.82;1774741;78;21138;-73
2022/10/19 11:05:53;;;;;;;4.97;1.42;;;;;;;14.01;83.67;99186.22;1776178;79;21044;-72
2022/10/19 11:08:48;;;;;;;2.37;1.42;;;;;;;14.10;81.73;99179.15;1764701;80;21916;-73
2022/10/19 11:11:27;;;;;;;5.15;1.72;;;;;;;14.07;80.89;99176.72;1769057;80;21035;-73
2022/10/19 11:14:40;;;;;;;3.90;2.22;;;;;;;13.95;80.31;99174.00;1770681;80;21008;-72
2022/10/19 11:17:20;;;;;;;2.93;1.40;;;;;;;13.82;80.76;99172.57;1715530;82;21193;-72
2022/10/19 11:19:52;;;;;;;2.92;2.05;;;;;;;13.70;81.57;99171.53;1711775;83;20998;-72
2022/10/19 11:22:36;;;;;;;3.60;1.75;;;;;;;13.58;80.01;99174.88;1741767;80;20949;-72
2022/10/19 11:25:43;;;;;;;5.08;2.00;;;;;;;13.45;79.68;99175.19;1787282;78;21059;-71
2022/10/19 11:28:32;;;;;;;4.47;2.50;;;;;;;13.36;78.85;99171.83;1782907;79;21086;-71
2022/10/19 11:31:35;;;;;;;1.92;1.70;;;;;;;13.31;78.48;99169.93;1778216;80;21228;-72
2022/10/19 11:34:45;;;;;;;2.83;1.75;;;;;;;13.27;78.03;99171.03;1768599;80;21390;-72
2022/10/19 11:37:42;;;;;;;3.37;1.82;;;;;;;13.30;78.06;99166.94;1761981;80;21070;-72
2022/10/19 11:40:27;;;;;;;3.70;2.12;;;;;;;13.42;78.58;99157.08;1734269;80;21048;-73
2022/10/19 11:43:19;;;;;;;8.35;5.33;;;;;;;13.56;78.09;99150.61;1769166;80;21533;-72
2022/10/19 11:46:27;;;;;;;4.97;2.42;;;;;;;13.70;77.52;99145.40;1731863;80;22082;-71
2022/10/19 11:49:28;;;;;;;7.17;2.47;;;;;;;13.80;77.05;99145.21;1751801;81;21103;-71
2022/10/19 11:52:18;;;;;;;4.83;1.92;;;;;;;13.79;75.32;99144.83;1764386;78;21091;-72
2022/10/19 11:55:26;;;;;;;7.12;1.85;;;;;;;13.76;75.52;99146.35;1755316;81;21048;-72
2022/10/19 11:58:20;;;;;;;5.25;2.75;;;;;;;13.74;75.64;99139.53;1759194;80;21542;-71
2022/10/19 12:01:01;;;;;;;8.05;2.30;;;;;;;13.73;75.67;99133.92;1773061;80;21261;-71
2022/10/19 12:04:16;;;;;;;5.53;3.25;;;;;;;13.74;74.70;99126.00;1766010;80;20963;-72
2022/10/19 12:06:51;;;;;;;4.12;2.42;;;;;;;13.82;74.65;99121.59;1777436;80;21047;-72